| Date | Time | Temp. (oF) | Dew Point (oF) | Rel. Hum. (%) | Press. (in.) | Wind Dir. | Wind Speed (mph) | Hourly Rainfall (in.) |
|
|---|---|---|---|---|---|---|---|---|---|
| 1 | 02/17 | 00:00 | 34 | 26 | 73 | 29.95 | WSW | 3 | 0.00 |
| 2 | 02/16 | 23:00 | 35 | 27 | 73 | 29.93 | WNW | 8 | 0.00 |
| 3 | 02/16 | 22:00 | 36 | 27 | 70 | 29.93 | WNW | 8 | 0.00 |
| 4 | 02/16 | 21:00 | 37 | 28 | 72 | 29.89 | WNW | 1 | 0.00 |
| 5 | 02/16 | 20:00 | 39 | 31 | 73 | 29.88 | SW | 2 | 0.00 |
| 6 | 02/16 | 19:00 | 40 | 35 | 83 | 29.86 | NW | 4 | 0.00 |
| 7 | 02/16 | 18:00 | 42 | 35 | 79 | 29.84 | NW | 3 | 0.00 |
| 8 | 02/16 | 17:00 | 43 | 36 | 77 | 29.80 | NW | 6 | 0.00 |
| 9 | 02/16 | 16:00 | 43 | 38 | 83 | 29.79 | WNW | 11 | 0.00 |
| 10 | 02/16 | 15:00 | 45 | 44 | 97 | 29.75 | W | 13 | 0.08 |
| 11 | 02/16 | 14:00 | 47 | 46 | 99 | 29.70 | W | 3 | 0.07 |
| 12 | 02/16 | 13:00 | 54 | 47 | 79 | 29.65 | NW | 6 | 0.00 |
| 13 | 02/16 | 12:00 | 54 | 47 | 78 | 29.66 | SSW | 4 | 0.00 |
| 14 | 02/16 | 11:00 | 52 | 46 | 83 | 29.66 | SSE | 7 | 0.00 |
| 15 | 02/16 | 10:00 | 49 | 46 | 91 | 29.68 | S | 4 | 0.00 |
| 16 | 02/16 | 09:00 | 44 | 44 | 100 | 29.74 | S | 7 | 0.00 |
| 17 | 02/16 | 08:00 | 41 | 41 | 100 | 29.77 | SSE | 0 | 0.00 |
| 18 | 02/16 | 07:00 | 40 | 40 | 100 | 29.78 | SE | 1 | 0.00 |
| 19 | miss | miss | miss | miss | miss | miss | miss | miss | |
| 20 | 02/16 | 06:08 | 41 | 40 | 99 | 29.81 | SSE | 4 | 0.00 |
| 21 | miss | miss | miss | miss | miss | miss | miss | miss | |
| 22 | 02/16 | 06:06 | 41 | 40 | 99 | 29.81 | SSE | 4 | 0.00 |
| 23 | miss | miss | miss | miss | miss | miss | miss | miss | |
| 24 | 02/16 | 06:04 | 41 | 40 | 98 | 29.81 | SE | 2 | 0.00 |
| 25 | miss | miss | miss | miss | miss | miss | miss | miss | |
| 26 | 02/16 | 06:03 | 41 | 40 | 98 | 29.81 | S | 0 | 0.00 |
| 27 | miss | miss | miss | miss | miss | miss | miss | miss | |
| 28 | 02/16 | 06:03 | 41 | 40 | 98 | 29.81 | S | 0 | 0.00 |
| 29 | miss | miss | miss | miss | miss | miss | miss | miss | |
| 30 | 02/16 | 06:03 | 41 | 40 | 98 | 29.81 | S | 0 | 0.00 |
| 31 | miss | miss | miss | miss | miss | miss | miss | miss | |
| 32 | 02/16 | 06:03 | 41 | 40 | 98 | 29.81 | S | 0 | 0.00 |
| 33 | miss | miss | miss | miss | miss | miss | miss | miss | |
| 34 | 02/16 | 06:03 | 41 | 40 | 98 | 29.81 | S | 0 | 0.00 |
| 35 | miss | miss | miss | miss | miss | miss | miss | miss | |
| 36 | 02/16 | 06:03 | 41 | 40 | 98 | 29.81 | S | 0 | 0.00 |
| 37 | miss | miss | miss | miss | miss | miss | miss | miss | |
| 38 | 02/16 | 06:03 | 41 | 40 | 98 | 29.81 | S | 0 | 0.00 |
| 39 | miss | miss | miss | miss | miss | miss | miss | miss | |
| 40 | 02/16 | 06:03 | 41 | 40 | 98 | 29.81 | S | 0 | 0.00 |
| 41 | miss | miss | miss | miss | miss | miss | miss | miss | |
| 42 | 02/16 | 06:03 | 41 | 40 | 98 | 29.81 | S | 0 | 0.00 |
| 43 | 02/16 | 06:00 | 41 | 40 | 98 | 29.82 | N | 0 | 0.00 |
| 44 | 02/16 | 05:00 | 42 | 41 | 97 | 29.84 | S | 6 | 0.00 |
| 45 | 02/16 | 04:00 | 43 | 41 | 95 | 29.87 | S | 4 | 0.00 |
| 46 | 02/16 | 03:00 | 44 | 41 | 92 | 29.90 | S | 6 | 0.00 |
| 47 | 02/16 | 02:00 | 45 | 41 | 88 | 29.92 | S | 6 | 0.00 |
| 48 | 02/16 | 01:00 | 47 | 42 | 84 | 29.95 | SSE | 10 | 0.00 |
| 49 | 02/16 | 00:00 | 47 | 41 | 80 | 29.97 | SSE | 16 | -0.15 |
| 50 | 02/15 | 23:00 | 47 | 42 | 83 | 29.98 | S | 6 | 0.00 |
| 51 | 02/15 | 22:00 | 43 | 39 | 87 | 30.01 | ESE | 3 | 0.00 |
| 52 | 02/15 | 21:00 | 46 | 40 | 82 | 30.04 | SE | 0 | 0.00 |
| 53 | 02/15 | 20:00 | 48 | 41 | 77 | 30.06 | SSE | 0 | 0.00 |
| 54 | 02/15 | 19:00 | 50 | 41 | 73 | 30.07 | SSE | 3 | 0.00 |
| 55 | 02/15 | 18:00 | 53 | 41 | 65 | 30.06 | S | 3 | 0.00 |
| 56 | 02/15 | 17:00 | 57 | 42 | 58 | 30.04 | SSE | 2 | 0.00 |
| 57 | 02/15 | 16:00 | 56 | 41 | 59 | 30.05 | SSE | 5 | 0.00 |
| 58 | 02/15 | 15:00 | 55 | 43 | 65 | 30.07 | SW | 5 | 0.00 |
| 59 | 02/15 | 14:00 | 52 | 42 | 69 | 30.09 | WSW | 6 | 0.00 |
| 60 | 02/15 | 13:00 | 50 | 42 | 75 | 30.12 | W | 2 | 0.00 |
| 61 | 02/15 | 12:00 | 48 | 41 | 79 | 30.15 | SW | 4 | 0.00 |
| 62 | 02/15 | 11:00 | 45 | 41 | 86 | 30.16 | WNW | 6 | 0.00 |
| 63 | 02/15 | 10:00 | 44 | 40 | 88 | 30.16 | SSW | 2 | 0.00 |
| 64 | 02/15 | 09:00 | 42 | 40 | 93 | 30.16 | WSW | 2 | 0.00 |
| 65 | 02/15 | 08:00 | 40 | 39 | 99 | 30.14 | SSW | 2 | 0.00 |
| 66 | 02/15 | 07:00 | 41 | 40 | 99 | 30.12 | SSW | 3 | 0.00 |
| 67 | 02/15 | 06:00 | 41 | 40 | 98 | 30.08 | SSE | 0 | 0.00 |
| 68 | 02/15 | 05:00 | 42 | 41 | 97 | 30.05 | WSW | 0 | 0.00 |
| 69 | 02/15 | 04:00 | 42 | 41 | 99 | 30.02 | W | 2 | 0.00 |
| 70 | 02/15 | 03:00 | 42 | 41 | 99 | 30.00 | WSW | 1 | 0.00 |
| 71 | 02/15 | 02:00 | 43 | 42 | 99 | 29.96 | SW | 5 | 0.00 |
| 72 | 02/15 | 01:00 | 46 | 45 | 100 | 29.93 | WNW | 7 | 0.00 |
| 73 | 02/15 | 00:00 | 48 | 48 | 100 | 29.89 | SSW | 5 | 0.00 |